TimeCDT,TemperatureF,Dew PointF,Humidity,Sea Level PressureIn,VisibilityMPH,Wind Direction,Wind SpeedMPH,Gust SpeedMPH,PrecipitationIn,Events,Conditions,WindDirDegrees,DateUTC
12:53 AM,79.0,71.1,77,29.92,10.0,SW,3.5,-,N/A,,Clear,230,2013-06-12 05:53:00
1:53 AM,80.1,71.1,74,29.92,10.0,SW,6.9,-,N/A,,Clear,230,2013-06-12 06:53:00
2:53 AM,78.1,71.1,79,29.91,10.0,SW,5.8,-,N/A,,Clear,220,2013-06-12 07:53:00
3:53 AM,75.9,71.1,85,29.91,10.0,SSW,4.6,-,N/A,,Clear,210,2013-06-12 08:53:00
4:53 AM,75.9,71.1,85,29.92,10.0,SSW,4.6,-,N/A,,Clear,210,2013-06-12 09:53:00
5:53 AM,75.9,71.1,85,29.94,10.0,SSW,5.8,-,N/A,,Clear,200,2013-06-12 10:53:00
6:53 AM,77.0,72.0,84,29.95,10.0,SSW,5.8,-,N/A,,Clear,210,2013-06-12 11:53:00
7:53 AM,81.0,73.0,77,29.97,10.0,SSW,6.9,-,N/A,,Clear,210,2013-06-12 12:53:00
8:53 AM,84.0,73.0,69,29.97,10.0,SW,10.4,-,N/A,,Clear,220,2013-06-12 13:53:00
9:53 AM,88.0,73.0,61,29.97,10.0,SW,12.7,18.4,N/A,,Clear,220,2013-06-12 14:53:00
10:53 AM,89.1,73.0,59,29.97,10.0,SW,11.5,-,N/A,,Clear,220,2013-06-12 15:53:00
11:53 AM,91.0,72.0,53,29.96,10.0,WSW,10.4,-,N/A,,Clear,240,2013-06-12 16:53:00
12:53 PM,91.9,72.0,52,29.93,10.0,WSW,12.7,-,N/A,,Clear,240,2013-06-12 17:53:00
1:53 PM,93.0,71.1,49,29.91,10.0,WSW,12.7,21.9,N/A,,Clear,240,2013-06-12 18:53:00
2:53 PM,93.9,71.1,47,29.88,10.0,SW,19.6,23.0,N/A,,Clear,220,2013-06-12 19:53:00
3:53 PM,93.9,69.1,44,29.85,10.0,SW,13.8,24.2,N/A,,Clear,230,2013-06-12 20:53:00
4:53 PM,93.9,69.1,44,29.83,10.0,SW,19.6,29.9,N/A,,Clear,220,2013-06-12 21:53:00
5:53 PM,93.0,70.0,47,29.83,10.0,SW,12.7,18.4,N/A,,Clear,230,2013-06-12 22:53:00
6:53 PM,91.0,70.0,50,29.82,10.0,SW,12.7,19.6,N/A,,Clear,230,2013-06-12 23:53:00
7:53 PM,89.1,70.0,53,29.82,10.0,SW,11.5,-,N/A,,Clear,220,2013-06-13 00:53:00
8:53 PM,87.1,69.1,55,29.82,10.0,SW,13.8,-,N/A,,Clear,220,2013-06-13 01:53:00
9:53 PM,86.0,69.1,57,29.83,10.0,SW,13.8,-,N/A,,Clear,220,2013-06-13 02:53:00
10:53 PM,84.9,70.0,61,29.84,10.0,SW,10.4,-,N/A,,Clear,220,2013-06-13 03:53:00
11:53 PM,82.9,70.0,65,29.83,10.0,SW,11.5,-,N/A,,Clear,220,2013-06-13 04:53:00